Map

Track Data

SID SEASON NUMBER BASIN SUBBASIN NAME ISO_TIME NATURE LAT LON WMO_WIND WMO_PRES WMO_AGENCY TRACK_TYPE DIST2LAND LANDFALL IFLAG USA_AGENCY USA_ATCF_ID USA_LAT USA_LON USA_RECORD USA_STATUS USA_WIND USA_PRES USA_SSHS USA_R34_NE USA_R34_SE USA_R34_SW USA_R34_NW USA_R50_NE USA_R50_SE USA_R50_SW USA_R50_NW USA_R64_NE USA_R64_SE USA_R64_SW USA_R64_NW USA_POCI USA_ROCI USA_RMW USA_EYE TOKYO_LAT TOKYO_LON TOKYO_GRADE TOKYO_WIND TOKYO_PRES TOKYO_R50_DIR TOKYO_R50_LONG TOKYO_R50_SHORT TOKYO_R30_DIR TOKYO_R30_LONG TOKYO_R30_SHORT TOKYO_LAND CMA_LAT CMA_LON CMA_CAT CMA_WIND CMA_PRES HKO_LAT HKO_LON HKO_CAT HKO_WIND HKO_PRES NEWDELHI_LAT NEWDELHI_LON NEWDELHI_GRADE NEWDELHI_WIND NEWDELHI_PRES NEWDELHI_CI NEWDELHI_DP NEWDELHI_POCI REUNION_LAT REUNION_LON REUNION_TYPE REUNION_WIND REUNION_PRES REUNION_TNUM REUNION_CI REUNION_RMW REUNION_R34_NE REUNION_R34_SE REUNION_R34_SW REUNION_R34_NW REUNION_R50_NE REUNION_R50_SE REUNION_R50_SW REUNION_R50_NW REUNION_R64_NE REUNION_R64_SE REUNION_R64_SW REUNION_R64_NW BOM_LAT BOM_LON BOM_TYPE BOM_WIND BOM_PRES BOM_TNUM BOM_CI BOM_RMW BOM_R34_NE BOM_R34_SE BOM_R34_SW BOM_R34_NW BOM_R50_NE BOM_R50_SE BOM_R50_SW BOM_R50_NW BOM_R64_NE BOM_R64_SE BOM_R64_SW BOM_R64_NW BOM_ROCI BOM_POCI BOM_EYE BOM_POS_METHOD BOM_PRES_METHOD NADI_LAT NADI_LON NADI_CAT NADI_WIND NADI_PRES WELLINGTON_LAT WELLINGTON_LON WELLINGTON_WIND WELLINGTON_PRES DS824_LAT DS824_LON DS824_STAGE DS824_WIND DS824_PRES TD9636_LAT TD9636_LON TD9636_STAGE TD9636_WIND TD9636_PRES TD9635_LAT TD9635_LON TD9635_WIND TD9635_PRES TD9635_ROCI NEUMANN_LAT NEUMANN_LON NEUMANN_CLASS NEUMANN_WIND NEUMANN_PRES MLC_LAT MLC_LON MLC_CLASS MLC_WIND MLC_PRES USA_GUST BOM_GUST BOM_GUST_PER REUNION_GUST REUNION_GUST_PER USA_SEAHGT USA_SEARAD_NE USA_SEARAD_SE USA_SEARAD_SW USA_SEARAD_NW STORM_SPEED STORM_DIR
1941267N14300 1941 61 NA CS NOT_NAMED 1941-09-23 18:00:00 TS 13.7000 -60.3000 30 hurdat_atl main 344 335 O_____________ hurdat_atl AL041941 13.7000 -60.3000 TD 30 -1 16 269
1941267N14300 1941 61 NA CS NOT_NAMED 1941-09-23 21:00:00 TS 13.6880 -61.0976 main 335 335 P_____________ AL041941 13.6880 -61.0976 TD 32 -1 16 270
1941267N14300 1941 61 NA CS NOT_NAMED 1941-09-24 00:00:00 TS 13.7000 -61.9000 35 hurdat_atl main 336 335 O_____________ hurdat_atl AL041941 13.7000 -61.9000 TS 35 0 16 272
1941267N14300 1941 61 NA CS NOT_NAMED 1941-09-24 03:00:00 TS 13.7498 -62.7074 main 335 335 P_____________ AL041941 13.7498 -62.7074 TS 37 0 16 274
1941267N14300 1941 61 NA CS NOT_NAMED 1941-09-24 06:00:00 TS 13.8000 -63.5000 40 hurdat_atl main 349 349 O_____________ hurdat_atl AL041941 13.8000 -63.5000 TS 40 0 15 272
1941267N14300 1941 61 NA CS NOT_NAMED 1941-09-24 09:00:00 TS 13.8073 -64.2726 main 358 358 P_____________ AL041941 13.8073 -64.2726 TS 42 0 15 270
1941267N14300 1941 61 NA CS NOT_NAMED 1941-09-24 12:00:00 TS 13.8000 -65.0000 45 hurdat_atl main 368 360 O_____________ hurdat_atl AL041941 13.8000 -65.0000 TS 45 0 14 269
1941267N14300 1941 61 NA CS NOT_NAMED 1941-09-24 15:00:00 TS 13.7922 -65.6651 main 359 358 P_____________ AL041941 13.7922 -65.6651 TS 47 0 13 270
1941267N14300 1941 61 NA CS NOT_NAMED 1941-09-24 18:00:00 TS 13.8000 -66.3000 50 hurdat_atl main 358 333 O_____________ hurdat_atl AL041941 13.8000 -66.3000 TS 50 0 13 272
1941267N14300 1941 61 NA CS NOT_NAMED 1941-09-24 21:00:00 TS 13.8423 -66.9500 main 333 308 P_____________ AL041941 13.8423 -66.9500 TS 52 0 13 275
1941267N14300 1941 61 NA CS NOT_NAMED 1941-09-25 00:00:00 TS 13.9000 -67.6000 55 hurdat_atl main 308 280 O_____________ hurdat_atl AL041941 13.9000 -67.6000 TS 55 0 13 275
1941267N14300 1941 61 NA CS NOT_NAMED 1941-09-25 03:00:00 TS 13.9573 -68.2500 main 281 238 P_____________ AL041941 13.9573 -68.2500 TS 55 0 13 275
1941267N14300 1941 61 NA CS NOT_NAMED 1941-09-25 06:00:00 TS 14.0000 -68.9000 55 hurdat_atl main 238 217 O_____________ hurdat_atl AL041941 14.0000 -68.9000 TS 55 0 13 272
1941267N14300 1941 61 NA CS NOT_NAMED 1941-09-25 09:00:00 TS 14.0073 -69.5501 main 215 212 P_____________ AL041941 14.0073 -69.5501 TS 57 0 13 270
1941267N14300 1941 61 NA CS NOT_NAMED 1941-09-25 12:00:00 TS 14.0000 -70.2000 60 hurdat_atl main 212 194 O_____________ hurdat_atl AL041941 14.0000 -70.2000 TS 60 0 13 269
1941267N14300 1941 61 NA CS NOT_NAMED 1941-09-25 15:00:00 TS 13.9923 -70.8426 main 194 179 P_____________ AL041941 13.9923 -70.8426 TS 62 0 13 270
1941267N14300 1941 61 NA CS NOT_NAMED 1941-09-25 18:00:00 TS 14.0000 -71.5000 65 hurdat_atl main 179 179 O_____________ hurdat_atl AL041941 14.0000 -71.5000 HU 65 1 13 272
1941267N14300 1941 61 NA CS NOT_NAMED 1941-09-25 21:00:00 TS 14.0424 -72.1925 main 187 187 P_____________ AL041941 14.0424 -72.1925 HU 67 1 14 274
1941267N14300 1941 61 NA CS NOT_NAMED 1941-09-26 00:00:00 TS 14.1000 -72.9000 70 hurdat_atl main 223 223 O_____________ hurdat_atl AL041941 14.1000 -72.9000 HU 70 1 14 275
1941267N14300 1941 61 NA CS NOT_NAMED 1941-09-26 03:00:00 TS 14.1574 -73.6075 main 270 270 P_____________ AL041941 14.1574 -73.6075 HU 72 1 14 274
1941267N14300 1941 61 NA CS NOT_NAMED 1941-09-26 06:00:00 TS 14.2000 -74.3000 75 hurdat_atl main 319 319 O_____________ hurdat_atl AL041941 14.2000 -74.3000 HU 75 1 13 272
1941267N14300 1941 61 NA CS NOT_NAMED 1941-09-26 09:00:00 TS 14.1998 -74.9576 main 346 346 P_____________ AL041941 14.1998 -74.9576 HU 77 1 13 270
1941267N14300 1941 61 NA CS NOT_NAMED 1941-09-26 12:00:00 TS 14.2000 -75.6000 80 hurdat_atl main 366 366 O_____________ hurdat_atl AL041941 14.2000 -75.6000 HU 80 1 13 272
1941267N14300 1941 61 NA CS NOT_NAMED 1941-09-26 15:00:00 TS 14.2498 -76.2499 main 385 381 P_____________ AL041941 14.2498 -76.2499 HU 85 2 13 275
1941267N14300 1941 61 NA CS NOT_NAMED 1941-09-26 18:00:00 TS 14.3000 -76.9000 90 hurdat_atl main 381 380 O_____________ hurdat_atl AL041941 14.3000 -76.9000 HU 90 2 13 272
1941267N14300 1941 61 NA CS NOT_NAMED 1941-09-26 21:00:00 TS 14.2998 -77.5426 main 381 381 P_____________ AL041941 14.2998 -77.5426 HU 92 2 13 270
1941267N14300 1941 61 NA CS NOT_NAMED 1941-09-27 00:00:00 TS 14.3000 -78.2000 95 hurdat_atl main 395 395 O_____________ hurdat_atl AL041941 14.3000 -78.2000 HU 95 2 13 272
1941267N14300 1941 61 NA CS NOT_NAMED 1941-09-27 03:00:00 TS 14.3424 -78.8925 main 421 382 P_____________ AL041941 14.3424 -78.8925 HU 100 3 14 274
1941267N14300 1941 61 NA CS NOT_NAMED 1941-09-27 06:00:00 TS 14.4000 -79.6000 105 hurdat_atl main 382 308 O_____________ hurdat_atl AL041941 14.4000 -79.6000 HU 105 3 14 274
1941267N14300 1941 61 NA CS NOT_NAMED 1941-09-27 09:00:00 TS 14.4422 -80.2926 main 308 232 P_____________ AL041941 14.4422 -80.2926 HU 110 3 14 274
1941267N14300 1941 61 NA CS NOT_NAMED 1941-09-27 12:00:00 TS 14.5000 -81.0000 115 hurdat_atl main 232 157 O_____________ hurdat_atl AL041941 14.5000 -81.0000 HU 115 4 14 276
1941267N14300 1941 61 NA CS NOT_NAMED 1941-09-27 15:00:00 TS 14.5848 -81.7426 main 157 72 P_____________ AL041941 14.5848 -81.7426 HU 115 4 15 278
1941267N14300 1941 61 NA CS NOT_NAMED 1941-09-27 18:00:00 TS 14.7000 -82.5000 115 hurdat_atl main 72 10 O_____________ hurdat_atl AL041941 14.7000 -82.5000 HU 115 4 15 280
1941267N14300 1941 61 NA CS NOT_NAMED 1941-09-27 21:00:00 TS 14.8349 -83.2651 main 0 0 P_____________ AL041941 14.8349 -83.2651 HU 102 3 15 282
1941267N14300 1941 61 NA NA NOT_NAMED 1941-09-28 00:00:00 TS 15.0000 -84.0000 90 hurdat_atl main 0 0 O_____________ hurdat_atl AL041941 15.0000 -84.0000 HU 90 2 14 285
1941267N14300 1941 61 NA NA NOT_NAMED 1941-09-28 03:00:00 TS 15.1922 -84.6726 main 0 0 P_____________ AL041941 15.1922 -84.6726 HU 82 1 13 288
1941267N14300 1941 61 NA NA NOT_NAMED 1941-09-28 06:00:00 TS 15.4000 -85.3000 75 hurdat_atl main 0 0 O_____________ hurdat_atl AL041941 15.4000 -85.3000 HU 75 1 13 289
1941267N14300 1941 61 NA NA NOT_NAMED 1941-09-28 09:00:00 TS 15.5923 -85.9077 main 0 0 P_____________ AL041941 15.5923 -85.9077 HU 72 1 12 289
1941267N14300 1941 61 NA CS NOT_NAMED 1941-09-28 12:00:00 TS 15.8000 -86.5000 70 hurdat_atl main 10 10 O_____________ hurdat_atl AL041941 15.8000 -86.5000 HU 70 1 12 292
1941267N14300 1941 61 NA CS NOT_NAMED 1941-09-28 15:00:00 TS 16.0497 -87.0851 main 22 22 P_____________ AL041941 16.0497 -87.0851 HU 72 1 13 293
1941267N14300 1941 61 NA CS NOT_NAMED 1941-09-28 18:00:00 TS 16.3000 -87.7000 75 hurdat_atl main 55 10 O_____________ hurdat_atl AL041941 16.3000 -87.7000 HU 75 1 13 290
1941267N14300 1941 61 NA CS NOT_NAMED 1941-09-28 21:00:00 TS 16.5073 -88.3777 main 0 0 P_____________ AL041941 16.5073 -88.3777 HU 67 1 14 287
1941267N14300 1941 61 NA NA NOT_NAMED 1941-09-29 00:00:00 TS 16.7000 -89.1000 60 hurdat_atl main 0 0 O_____________ hurdat_atl AL041941 16.7000 -89.1000 TS 60 0 15 286
1941267N14300 1941 61 NA NA NOT_NAMED 1941-09-29 03:00:00 TS 16.8999 -89.8501 main 0 0 P_____________ AL041941 16.8999 -89.8501 TS 55 0 15 286
1941267N14300 1941 61 NA NA NOT_NAMED 1941-09-29 06:00:00 TS 17.1000 -90.6000 50 hurdat_atl main 0 0 O_____________ hurdat_atl AL041941 17.1000 -90.6000 TS 50 0 15 285
1941267N14300 1941 61 NA NA NOT_NAMED 1941-09-29 09:00:00 TS 17.2925 -91.3376 main 0 0 P_____________ AL041941 17.2925 -91.3376 TS 45 0 14 287
1941267N14300 1941 61 NA NA NOT_NAMED 1941-09-29 12:00:00 TS 17.5000 -92.0000 40 hurdat_atl main 0 0 O_____________ hurdat_atl AL041941 17.5000 -92.0000 TS 40 0 12 291
1941267N14300 1941 61 NA NA NOT_NAMED 1941-09-29 15:00:00 TS 17.7347 -92.5452 main 0 0 P_____________ AL041941 17.7347 -92.5452 TS 37 0 11 298
1941267N14300 1941 61 NA NA NOT_NAMED 1941-09-29 18:00:00 TS 18.0000 -93.0000 35 hurdat_atl main 0 0 O_____________ hurdat_atl AL041941 18.0000 -93.0000 TS 35 0 10 303
1941267N14300 1941 61 NA NA NOT_NAMED 1941-09-29 21:00:00 TS 18.2849 -93.4227 main 0 0 P_____________ AL041941 18.2849 -93.4227 TS 32 -1 10 308
1941267N14300 1941 61 NA GM NOT_NAMED 1941-09-30 00:00:00 TS 18.6000 -93.8000 30 hurdat_atl main 33 33 O_____________ hurdat_atl AL041941 18.6000 -93.8000 TD 30 -1 10 313
1941267N14300 1941 61 NA GM NOT_NAMED 1941-09-30 03:00:00 TS 18.9425 -94.1725 main 74 74 P_____________ AL041941 18.9425 -94.1725 TD 30 -1 10 317
1941267N14300 1941 61 NA GM NOT_NAMED 1941-09-30 06:00:00 TS 19.3000 -94.5000 30 hurdat_atl main 94 94 O_____________ hurdat_atl AL041941 19.3000 -94.5000 TD 30 -1 9 321
1941267N14300 1941 61 NA GM NOT_NAMED 1941-09-30 09:00:00 TS 19.6424 -94.7801 main 109 109 P_____________ AL041941 19.6424 -94.7801 TD 27 -1 8 326
1941267N14300 1941 61 NA GM NOT_NAMED 1941-09-30 12:00:00 TS 20.0000 -95.0000 25 hurdat_atl main 145 137 O_____________ hurdat_atl AL041941 20.0000 -95.0000 TD 25 -1 8 334
1941267N14300 1941 61 NA GM NOT_NAMED 1941-09-30 15:00:00 TS 20.3900 -95.1649 main 137 137 P_____________ AL041941 20.3900 -95.1649 TD 25 -1 9 341
1941267N14300 1941 61 NA GM NOT_NAMED 1941-09-30 18:00:00 TS 20.8000 -95.3000 25 hurdat_atl main 152 O_____________ hurdat_atl AL041941 20.8000 -95.3000 TD 25 -1 9 343

About IBTrACS Database

This database is a web-friendly format of International Best Track Archive for Climate Stewardship (IBTrACS), a global best track data archive curated by NOAA dating back to 1842.

Updated: 2021-12-06